createdAt,value
2019-03-17T00:01:38.271Z,10.92
2019-03-17T00:04:07.141Z,10.86
2019-03-17T00:06:35.927Z,10.83
2019-03-17T00:09:06.686Z,10.82
2019-03-17T00:11:35.472Z,10.83
2019-03-17T00:14:04.269Z,10.83
2019-03-17T00:16:33.061Z,10.85
2019-03-17T00:19:01.932Z,10.86
2019-03-17T00:21:30.718Z,10.90
2019-03-17T00:23:59.513Z,10.91
2019-03-17T00:26:28.279Z,10.90
2019-03-17T00:28:57.059Z,10.92
2019-03-17T00:31:25.898Z,10.93
2019-03-17T00:33:54.671Z,10.93
2019-03-17T00:36:23.460Z,10.94
2019-03-17T00:38:52.300Z,10.96
2019-03-17T00:41:21.120Z,10.97
2019-03-17T00:43:49.969Z,10.96
2019-03-17T00:46:18.758Z,10.96
2019-03-17T00:48:47.587Z,10.97
2019-03-17T00:51:16.525Z,10.97
2019-03-17T00:53:45.295Z,10.98
2019-03-17T00:56:14.074Z,10.97
2019-03-17T00:58:42.923Z,10.96
2019-03-17T01:01:11.712Z,10.96
2019-03-17T01:03:40.509Z,10.96
2019-03-17T01:06:09.338Z,10.96
2019-03-17T01:08:38.166Z,10.96
2019-03-17T01:11:07.001Z,10.94
2019-03-17T01:13:35.866Z,10.93
2019-03-17T01:16:04.574Z,10.92
2019-03-17T01:18:33.375Z,10.91
2019-03-17T01:21:02.153Z,10.89
2019-03-17T01:23:30.942Z,10.88
2019-03-17T01:25:59.739Z,10.87
2019-03-17T01:28:28.544Z,10.88
2019-03-17T01:30:57.320Z,10.85
2019-03-17T01:33:26.106Z,10.85
2019-03-17T01:35:54.915Z,10.83
2019-03-17T01:38:23.738Z,10.82
2019-03-17T01:40:52.556Z,10.81
2019-03-17T01:43:21.349Z,10.81
2019-03-17T01:45:50.143Z,10.78
2019-03-17T01:48:18.926Z,10.77
2019-03-17T01:50:47.742Z,10.75
2019-03-17T01:53:16.603Z,10.73
2019-03-17T01:55:45.475Z,10.73
2019-03-17T01:58:14.262Z,10.72
2019-03-17T02:00:43.129Z,10.71
2019-03-17T02:03:12.456Z,10.70
2019-03-17T02:05:41.246Z,10.68
2019-03-17T02:08:10.027Z,10.67
2019-03-17T02:10:38.868Z,10.67
2019-03-17T02:13:07.655Z,10.67
2019-03-17T02:15:36.451Z,10.66
2019-03-17T02:18:05.296Z,10.65
2019-03-17T02:20:34.163Z,10.65
2019-03-17T02:23:02.951Z,10.63
2019-03-17T02:25:31.794Z,10.62
2019-03-17T02:28:00.575Z,10.61
2019-03-17T02:30:29.398Z,10.60
2019-03-17T02:32:58.171Z,10.60
2019-03-17T02:35:38.778Z,10.58
2019-03-17T02:37:55.752Z,10.56
2019-03-17T02:40:24.552Z,10.56
2019-03-17T02:42:53.385Z,10.56
2019-03-17T02:45:22.188Z,10.55
2019-03-17T02:47:50.996Z,10.55
2019-03-17T02:50:19.861Z,10.53
2019-03-17T02:52:49.954Z,10.51
2019-03-17T02:55:18.777Z,10.50
2019-03-17T02:57:47.595Z,10.49
2019-03-17T03:00:18.456Z,10.48
2019-03-17T03:02:45.271Z,10.48
2019-03-17T03:05:14.037Z,10.46
2019-03-17T03:07:42.863Z,10.42
2019-03-17T03:10:11.696Z,10.40
2019-03-17T03:12:40.448Z,10.36
2019-03-17T03:15:09.260Z,10.31
2019-03-17T03:17:38.060Z,10.26
2019-03-17T03:20:06.870Z,10.23
2019-03-17T03:22:35.658Z,10.17
2019-03-17T03:25:04.547Z,10.13
2019-03-17T03:27:33.412Z,10.08
2019-03-17T03:30:02.130Z,10.06
2019-03-17T03:32:30.950Z,10.03
2019-03-17T03:34:59.745Z,9.99
2019-03-17T03:37:28.609Z,9.96
2019-03-17T03:39:57.400Z,9.93
2019-03-17T03:42:26.188Z,9.88
2019-03-17T03:44:55.040Z,9.87
2019-03-17T03:47:23.854Z,9.84
2019-03-17T03:49:57.031Z,9.81
2019-03-17T03:52:23.250Z,9.78
2019-03-17T03:54:52.039Z,9.74
2019-03-17T03:57:20.925Z,9.73
2019-03-17T03:59:50.670Z,9.70
2019-03-17T04:02:19.458Z,9.68
2019-03-17T04:04:48.242Z,9.67
2019-03-17T04:07:17.008Z,9.64
2019-03-17T04:09:45.832Z,9.62
2019-03-17T04:12:14.675Z,9.60
2019-03-17T04:14:43.469Z,9.58
2019-03-17T04:17:12.247Z,9.57
2019-03-17T04:19:41.018Z,9.56
2019-03-17T04:22:09.796Z,9.55
2019-03-17T04:24:38.573Z,9.54
2019-03-17T04:27:07.370Z,9.51
2019-03-17T04:29:36.146Z,9.51
2019-03-17T04:32:04.932Z,9.50
2019-03-17T04:34:33.697Z,9.48
2019-03-17T04:37:02.462Z,9.46
2019-03-17T04:39:31.278Z,9.44
2019-03-17T04:42:00.036Z,9.44
2019-03-17T04:44:28.816Z,9.43
2019-03-17T04:46:57.611Z,9.43
2019-03-17T04:49:26.384Z,9.41
2019-03-17T04:51:55.159Z,9.38
2019-03-17T04:54:23.952Z,9.37
2019-03-17T04:56:52.726Z,9.37
2019-03-17T04:59:21.505Z,9.34
2019-03-17T05:01:50.285Z,9.29
2019-03-17T05:04:19.759Z,9.24
2019-03-17T05:06:52.943Z,9.22
2019-03-17T05:09:17.292Z,9.18
2019-03-17T05:11:46.071Z,9.14
2019-03-17T05:14:14.880Z,9.08
2019-03-17T05:16:43.690Z,9.02
2019-03-17T05:19:12.463Z,8.97
2019-03-17T05:21:41.431Z,8.91
2019-03-17T05:24:10.318Z,8.83
2019-03-17T05:26:39.088Z,8.72
2019-03-17T05:29:07.847Z,8.66
2019-03-17T05:31:36.616Z,8.61
2019-03-17T05:34:05.435Z,8.46
2019-03-17T05:36:34.212Z,8.29
2019-03-17T05:39:03.048Z,8.20
2019-03-17T05:41:31.791Z,8.08
2019-03-17T05:44:00.569Z,8.01
2019-03-17T05:46:29.394Z,7.92
2019-03-17T05:48:58.167Z,7.85
2019-03-17T05:51:27.020Z,7.80
2019-03-17T05:53:55.778Z,7.69
2019-03-17T05:56:24.569Z,7.64
2019-03-17T05:58:53.341Z,7.58
2019-03-17T06:01:22.112Z,7.54
2019-03-17T06:03:50.877Z,7.52
2019-03-17T06:06:19.652Z,7.49
2019-03-17T06:08:48.516Z,7.47
2019-03-17T06:11:17.269Z,7.47
2019-03-17T06:13:46.047Z,7.48
2019-03-17T06:16:14.848Z,7.47
2019-03-17T06:18:43.600Z,7.44
2019-03-17T06:21:12.383Z,7.41
2019-03-17T06:23:41.155Z,7.43
2019-03-17T06:26:09.952Z,7.40
2019-03-17T06:28:38.714Z,7.40
2019-03-17T06:31:07.495Z,7.43
2019-03-17T06:33:36.298Z,7.44
2019-03-17T06:36:05.095Z,7.46
2019-03-17T06:38:33.853Z,7.47
2019-03-17T06:41:04.348Z,7.48
2019-03-17T06:43:31.484Z,7.49
2019-03-17T06:46:00.272Z,7.51
2019-03-17T06:48:29.042Z,7.53
2019-03-17T06:50:57.828Z,7.55
2019-03-17T06:53:26.624Z,7.58
2019-03-17T06:55:55.475Z,7.59
2019-03-17T06:58:24.373Z,7.62
2019-03-17T07:00:53.201Z,7.64
2019-03-17T07:03:22.026Z,7.62
2019-03-17T07:05:50.792Z,7.61
2019-03-17T07:08:19.579Z,7.60
2019-03-17T07:10:48.398Z,7.58
2019-03-17T07:13:17.166Z,7.59
2019-03-17T07:15:46.007Z,7.63
2019-03-17T07:18:14.846Z,7.68
2019-03-17T07:20:43.726Z,7.75
2019-03-17T07:23:12.546Z,8.12
2019-03-17T07:25:41.358Z,9.89
2019-03-17T07:28:10.984Z,10.08
2019-03-17T07:30:39.808Z,9.75
2019-03-17T07:33:08.616Z,9.52
2019-03-17T07:35:37.414Z,9.40
2019-03-17T07:38:07.318Z,9.80
2019-03-17T07:40:37.441Z,11.29
2019-03-17T07:43:06.774Z,12.21
2019-03-17T07:45:35.556Z,13.25
2019-03-17T07:48:04.345Z,13.68
2019-03-17T07:50:33.131Z,13.70
2019-03-17T07:53:01.940Z,13.56
2019-03-17T07:55:30.764Z,13.69
2019-03-17T07:57:59.597Z,13.74
2019-03-17T08:00:32.287Z,13.88
2019-03-17T08:02:57.351Z,13.99
2019-03-17T08:05:26.172Z,14.04
2019-03-17T08:07:54.967Z,14.67
2019-03-17T08:10:23.749Z,15.10
2019-03-17T08:12:52.579Z,15.03
2019-03-17T08:15:21.463Z,14.96
2019-03-17T08:17:50.283Z,14.74
2019-03-17T08:20:19.092Z,13.86
2019-03-17T08:22:47.858Z,12.79
2019-03-17T08:25:16.770Z,11.73
2019-03-17T08:27:45.611Z,11.28
2019-03-17T08:30:14.467Z,11.19
2019-03-17T08:32:43.252Z,11.31
2019-03-17T08:35:12.918Z,11.46
2019-03-17T08:37:42.575Z,11.61
2019-03-17T08:40:13.630Z,11.88
2019-03-17T08:42:42.448Z,11.99
2019-03-17T08:45:11.496Z,12.00
2019-03-17T08:47:40.268Z,11.80
2019-03-17T08:50:09.695Z,11.45
2019-03-17T08:52:38.450Z,11.16
2019-03-17T08:55:07.388Z,10.88
2019-03-17T08:57:36.156Z,10.69
2019-03-17T09:00:06.440Z,10.69
2019-03-17T09:02:35.236Z,10.81
2019-03-17T09:05:04.984Z,10.78
2019-03-17T09:07:33.828Z,10.60
2019-03-17T09:10:02.643Z,10.50
2019-03-17T09:12:31.576Z,10.40
2019-03-17T09:15:00.515Z,10.52
2019-03-17T09:17:29.156Z,10.66
2019-03-17T09:19:57.945Z,10.90
2019-03-17T09:22:26.803Z,10.83
2019-03-17T09:24:55.611Z,10.47
2019-03-17T09:27:24.487Z,10.30
2019-03-17T09:29:53.281Z,10.12
2019-03-17T09:32:22.094Z,10.02
2019-03-17T09:34:50.936Z,10.01
2019-03-17T09:37:19.715Z,9.89
2019-03-17T09:39:48.511Z,9.90
2019-03-17T09:42:17.319Z,10.26
2019-03-17T09:44:46.116Z,10.60
2019-03-17T09:47:14.907Z,10.76
2019-03-17T09:49:43.698Z,10.98
2019-03-17T09:52:13.587Z,11.15
2019-03-17T09:54:42.371Z,11.13
2019-03-17T09:57:11.461Z,11.38
2019-03-17T09:59:40.268Z,11.69
2019-03-17T10:02:09.099Z,11.97
2019-03-17T10:04:39.712Z,12.11
2019-03-17T10:07:08.515Z,11.68
2019-03-17T10:09:40.855Z,11.11
2019-03-17T10:12:09.630Z,10.35
2019-03-17T10:14:38.550Z,9.95
2019-03-17T10:17:08.502Z,9.70
2019-03-17T10:19:37.299Z,9.53
2019-03-17T10:22:06.703Z,9.34
2019-03-17T10:24:35.528Z,9.28
2019-03-17T10:27:05.212Z,9.33
2019-03-17T10:29:36.744Z,9.35
2019-03-17T10:32:07.809Z,9.29
2019-03-17T10:34:36.600Z,9.29
2019-03-17T10:37:05.410Z,9.45
2019-03-17T10:39:34.194Z,9.74
2019-03-17T10:42:03.087Z,9.98
2019-03-17T10:44:33.155Z,10.34
2019-03-17T10:47:02.075Z,10.61
2019-03-17T10:49:30.915Z,10.86
2019-03-17T10:51:59.782Z,11.18
2019-03-17T10:54:29.044Z,11.69
2019-03-17T10:56:57.856Z,11.79
2019-03-17T10:59:27.867Z,11.55
2019-03-17T11:01:56.465Z,11.48
2019-03-17T11:04:26.128Z,11.92
2019-03-17T11:06:55.828Z,12.53
2019-03-17T11:09:25.782Z,12.98
2019-03-17T11:11:54.127Z,13.23
2019-03-17T11:14:29.899Z,13.36
2019-03-17T11:16:58.808Z,13.41
2019-03-17T11:19:27.572Z,13.43
2019-03-17T11:21:56.365Z,13.30
2019-03-17T11:24:25.250Z,13.29
2019-03-17T11:26:55.712Z,13.31
2019-03-17T11:29:22.799Z,13.96
2019-03-17T11:31:51.610Z,14.55
2019-03-17T11:34:20.401Z,14.86
2019-03-17T11:36:49.221Z,15.02
2019-03-17T11:39:18.082Z,14.12
2019-03-17T11:41:46.910Z,12.83
2019-03-17T11:44:15.734Z,12.19
2019-03-17T11:46:44.746Z,11.82
2019-03-17T11:49:15.383Z,11.45
2019-03-17T11:51:44.345Z,11.39
2019-03-17T11:54:13.187Z,11.58
2019-03-17T11:56:41.956Z,11.67
2019-03-17T11:59:11.354Z,11.42
2019-03-17T12:01:42.295Z,11.18
2019-03-17T12:04:11.130Z,10.99
2019-03-17T12:06:40.494Z,10.82
2019-03-17T12:09:09.271Z,10.75
2019-03-17T12:11:39.114Z,10.71
2019-03-17T12:14:09.913Z,10.87
2019-03-17T12:16:36.755Z,11.10
2019-03-17T12:19:05.606Z,11.41
2019-03-17T12:21:34.410Z,11.65
2019-03-17T12:24:03.205Z,11.93
2019-03-17T12:26:32.048Z,11.84
2019-03-17T12:29:00.833Z,11.78
2019-03-17T12:31:29.604Z,11.86
2019-03-17T12:33:58.498Z,11.73
2019-03-17T12:36:27.294Z,11.68
2019-03-17T12:38:56.064Z,11.80
2019-03-17T12:41:24.887Z,11.87
2019-03-17T12:43:53.679Z,11.92
2019-03-17T12:46:22.503Z,12.03
2019-03-17T12:48:51.392Z,12.17
2019-03-17T12:51:20.213Z,12.38
2019-03-17T12:53:49.004Z,12.48
2019-03-17T12:56:17.819Z,12.37
2019-03-17T12:58:46.690Z,12.47
2019-03-17T13:01:15.488Z,12.58
2019-03-17T13:03:44.334Z,12.24
2019-03-17T13:06:13.423Z,11.80
2019-03-17T13:08:42.307Z,11.64
2019-03-17T13:11:12.169Z,11.68
2019-03-17T13:13:40.959Z,11.95
2019-03-17T13:16:10.535Z,12.29
2019-03-17T13:18:40.042Z,12.51
2019-03-17T13:21:08.968Z,12.29
2019-03-17T13:23:37.723Z,11.91
2019-03-17T13:26:06.814Z,11.78
2019-03-17T13:28:35.714Z,11.92
2019-03-17T13:31:04.543Z,12.12
2019-03-17T13:33:33.313Z,12.17
2019-03-17T13:36:07.584Z,12.28
2019-03-17T13:38:36.968Z,12.41
2019-03-17T13:41:05.766Z,12.53
2019-03-17T13:43:35.094Z,12.37
2019-03-17T13:46:03.921Z,12.20
2019-03-17T13:48:33.487Z,12.13
2019-03-17T13:51:02.972Z,12.08
2019-03-17T13:53:32.623Z,12.00
2019-03-17T13:56:01.552Z,11.99
2019-03-17T13:58:30.349Z,12.00
2019-03-17T14:00:59.471Z,11.85
2019-03-17T14:03:28.390Z,11.94
2019-03-17T14:05:57.180Z,12.04
2019-03-17T14:08:26.484Z,12.24
2019-03-17T14:10:55.348Z,12.20
2019-03-17T14:13:24.148Z,12.04
2019-03-17T14:15:52.957Z,12.13
2019-03-17T14:18:22.065Z,12.31
2019-03-17T14:20:50.931Z,12.35
2019-03-17T14:23:19.734Z,12.28
2019-03-17T14:25:48.603Z,12.17
2019-03-17T14:28:18.432Z,12.11
2019-03-17T14:30:47.826Z,12.14
2019-03-17T14:33:16.916Z,12.40
2019-03-17T14:35:45.732Z,12.58
2019-03-17T14:38:14.524Z,12.69
2019-03-17T14:40:52.845Z,12.82
2019-03-17T14:43:12.182Z,12.83
2019-03-17T14:45:40.967Z,12.64
2019-03-17T14:48:09.795Z,12.38
2019-03-17T14:50:38.562Z,12.06
2019-03-17T14:53:07.411Z,11.86
2019-03-17T14:55:36.296Z,11.70
2019-03-17T14:58:05.569Z,11.57
2019-03-17T15:00:34.418Z,11.60
2019-03-17T15:03:03.243Z,11.77
2019-03-17T15:05:32.288Z,11.78
2019-03-17T15:08:01.090Z,11.78
2019-03-17T15:10:29.919Z,11.87
2019-03-17T15:12:58.791Z,11.92
2019-03-17T15:15:27.652Z,11.95
2019-03-17T15:17:56.458Z,11.86
2019-03-17T15:20:25.303Z,11.86
2019-03-17T15:22:54.104Z,11.94
2019-03-17T15:25:22.952Z,11.73
2019-03-17T15:27:52.448Z,11.52
2019-03-17T15:30:22.753Z,11.39
2019-03-17T15:32:51.585Z,11.30
2019-03-17T15:35:20.495Z,11.29
2019-03-17T15:37:49.288Z,11.37
2019-03-17T15:40:18.176Z,11.44
2019-03-17T15:42:47.180Z,11.47
2019-03-17T15:45:15.916Z,11.48
2019-03-17T15:47:44.748Z,11.35
2019-03-17T15:50:15.016Z,11.20
2019-03-17T15:52:45.051Z,11.06
2019-03-17T15:55:13.855Z,10.97
2019-03-17T15:57:43.922Z,10.85
2019-03-17T16:00:24.940Z,10.67
2019-03-17T16:02:44.333Z,10.50
2019-03-17T16:05:13.147Z,10.33
2019-03-17T16:07:42.732Z,10.19
2019-03-17T16:10:11.674Z,10.05
2019-03-17T16:13:06.240Z,9.83
2019-03-17T16:15:35.973Z,9.66
2019-03-17T16:18:04.923Z,9.49
2019-03-17T16:20:33.940Z,9.35
2019-03-17T16:23:04.451Z,9.33
2019-03-17T16:25:33.259Z,9.34
2019-03-17T16:28:02.094Z,9.42
2019-03-17T16:30:30.983Z,9.39
2019-03-17T16:32:59.817Z,9.35
2019-03-17T16:35:28.681Z,9.33
2019-03-17T16:37:57.462Z,9.28
2019-03-17T16:40:26.288Z,9.21
2019-03-17T16:42:55.183Z,9.14
2019-03-17T16:45:23.980Z,9.03
2019-03-17T16:47:56.184Z,8.99
2019-03-17T16:50:25.017Z,8.93
2019-03-17T16:52:53.821Z,8.88
2019-03-17T16:55:22.786Z,8.84
2019-03-17T16:57:51.932Z,8.81
2019-03-17T17:00:20.780Z,8.76
2019-03-17T17:02:50.960Z,8.74
2019-03-17T17:05:20.630Z,8.72
2019-03-17T17:07:49.412Z,8.63
2019-03-17T17:10:18.543Z,8.55
2019-03-17T17:12:47.374Z,8.48
2019-03-17T17:15:18.253Z,8.42
2019-03-17T17:17:47.050Z,8.34
2019-03-17T17:20:17.977Z,8.26
2019-03-17T17:22:46.803Z,8.19
2019-03-17T17:25:15.613Z,8.15
2019-03-17T17:27:44.454Z,8.11
2019-03-17T17:30:14.595Z,8.05
2019-03-17T17:32:43.567Z,7.99
2019-03-17T17:35:13.338Z,7.94
2019-03-17T17:37:42.121Z,7.89
2019-03-17T17:40:12.815Z,7.82
2019-03-17T17:42:41.778Z,7.74
2019-03-17T17:45:12.524Z,7.68
2019-03-17T17:47:41.331Z,7.59
2019-03-17T17:50:11.426Z,7.54
2019-03-17T17:52:40.264Z,7.49
2019-03-17T17:55:09.098Z,7.36
2019-03-17T17:57:37.888Z,7.29
2019-03-17T18:00:07.427Z,7.21
2019-03-17T18:02:36.759Z,7.13
2019-03-17T18:05:05.598Z,7.05
2019-03-17T18:07:35.303Z,7.00
2019-03-17T18:10:04.562Z,6.93
2019-03-17T18:12:33.342Z,6.87
2019-03-17T18:15:02.218Z,6.82
2019-03-17T18:17:31.006Z,6.77
2019-03-17T18:19:59.780Z,6.72
2019-03-17T18:22:28.641Z,6.68
2019-03-17T18:24:57.452Z,6.64
2019-03-17T18:27:26.242Z,6.60
2019-03-17T18:29:55.037Z,6.55
2019-03-17T18:32:23.963Z,6.52
2019-03-17T18:34:52.904Z,6.49
2019-03-17T18:37:21.718Z,6.45
2019-03-17T18:39:52.147Z,6.39
2019-03-17T18:42:32.254Z,6.35
2019-03-17T18:44:49.724Z,6.34
2019-03-17T18:47:18.499Z,6.28
2019-03-17T18:49:49.584Z,6.23
2019-03-17T18:52:18.443Z,6.18
2019-03-17T18:54:48.106Z,6.15
2019-03-17T18:57:16.907Z,6.11
2019-03-17T18:59:45.661Z,6.07
2019-03-17T19:02:14.469Z,6.03
2019-03-17T19:04:43.264Z,6.01
2019-03-17T19:07:13.245Z,5.98
2019-03-17T19:09:42.128Z,5.94
2019-03-17T19:12:11.489Z,5.92
2019-03-17T19:14:41.557Z,5.89
2019-03-17T19:17:10.319Z,5.87
2019-03-17T19:19:39.163Z,5.84
2019-03-17T19:22:08.085Z,5.80
2019-03-17T19:24:37.093Z,5.77
2019-03-17T19:27:05.697Z,5.74
2019-03-17T19:29:34.566Z,5.71
2019-03-17T19:32:03.460Z,5.70
2019-03-17T19:34:32.267Z,5.71
2019-03-17T19:37:01.080Z,5.73
2019-03-17T19:39:29.918Z,5.74
2019-03-17T19:41:58.836Z,5.74
2019-03-17T19:44:27.883Z,5.71
2019-03-17T19:46:57.278Z,5.69
2019-03-17T19:49:26.067Z,5.65
2019-03-17T19:51:54.848Z,5.62
2019-03-17T19:54:24.456Z,5.58
2019-03-17T19:56:53.235Z,5.55
2019-03-17T19:59:23.026Z,5.52
2019-03-17T20:01:53.117Z,5.52
2019-03-17T20:04:30.415Z,5.53
2019-03-17T20:06:51.884Z,5.57
2019-03-17T20:09:20.767Z,5.59
2019-03-17T20:11:50.794Z,5.60
2019-03-17T20:14:19.551Z,5.59
2019-03-17T20:16:48.334Z,5.56
2019-03-17T20:19:17.361Z,5.59
2019-03-17T20:21:46.241Z,5.64
2019-03-17T20:24:15.060Z,5.67
2019-03-17T20:26:43.969Z,5.67
2019-03-17T20:29:12.732Z,5.64
2019-03-17T20:31:41.514Z,5.62
2019-03-17T20:34:10.288Z,5.58
2019-03-17T20:36:39.071Z,5.51
2019-03-17T20:39:07.882Z,5.45
2019-03-17T20:41:37.375Z,5.37
2019-03-17T20:44:06.138Z,5.28
2019-03-17T20:46:35.023Z,5.20
2019-03-17T20:49:03.803Z,5.11
2019-03-17T20:51:32.691Z,5.03
2019-03-17T20:54:01.458Z,4.97
2019-03-17T20:56:30.243Z,4.91
2019-03-17T20:58:58.998Z,4.88
2019-03-17T21:01:27.772Z,4.82
2019-03-17T21:03:56.632Z,4.77
2019-03-17T21:06:25.413Z,4.74
2019-03-17T21:08:54.243Z,4.72
2019-03-17T21:11:23.042Z,4.71
2019-03-17T21:13:51.815Z,4.69
2019-03-17T21:16:20.641Z,4.66
2019-03-17T21:18:49.456Z,4.64
2019-03-17T21:21:18.334Z,4.62
2019-03-17T21:23:47.125Z,4.61
2019-03-17T21:26:16.523Z,4.61
2019-03-17T21:28:45.555Z,4.63
2019-03-17T21:31:14.371Z,4.64
2019-03-17T21:33:43.196Z,4.64
2019-03-17T21:36:12.763Z,4.68
2019-03-17T21:38:41.707Z,4.71
2019-03-17T21:41:10.599Z,4.70
2019-03-17T21:43:39.385Z,4.67
2019-03-17T21:46:08.199Z,4.64
2019-03-17T21:48:36.970Z,4.60
2019-03-17T21:51:05.749Z,4.55
2019-03-17T21:53:34.522Z,4.50
2019-03-17T21:56:03.351Z,4.47
2019-03-17T21:58:32.162Z,4.44
2019-03-17T22:01:00.919Z,4.41
2019-03-17T22:03:29.706Z,4.39
2019-03-17T22:05:58.499Z,4.37
2019-03-17T22:08:27.291Z,4.35
2019-03-17T22:10:56.071Z,4.33
2019-03-17T22:13:24.870Z,4.32
2019-03-17T22:15:54.951Z,4.30
2019-03-17T22:18:23.727Z,4.30
2019-03-17T22:20:52.523Z,4.27
2019-03-17T22:23:22.811Z,4.27
2019-03-17T22:25:52.599Z,4.28
2019-03-17T22:28:21.375Z,4.26
2019-03-17T22:30:50.207Z,4.25
2019-03-17T22:33:19.027Z,4.22
2019-03-17T22:35:47.818Z,4.21
2019-03-17T22:38:18.384Z,4.20
2019-03-17T22:40:47.171Z,4.20
2019-03-17T22:43:15.963Z,4.20
2019-03-17T22:45:44.779Z,4.20
2019-03-17T22:48:13.572Z,4.19
2019-03-17T22:50:42.400Z,4.20
2019-03-17T22:53:11.223Z,4.20
2019-03-17T22:55:40.039Z,4.21
2019-03-17T22:58:08.810Z,4.24
2019-03-17T23:00:42.393Z,4.22
2019-03-17T23:03:12.474Z,4.19
2019-03-17T23:05:41.230Z,4.15
2019-03-17T23:08:10.039Z,4.13
2019-03-17T23:10:38.811Z,4.13
2019-03-17T23:13:08.250Z,4.10
2019-03-17T23:15:37.036Z,4.10
2019-03-17T23:18:05.828Z,4.07
2019-03-17T23:20:34.616Z,4.05
2019-03-17T23:23:03.467Z,4.02
2019-03-17T23:25:32.311Z,4.02
2019-03-17T23:28:01.138Z,4.01
2019-03-17T23:30:29.930Z,4.01
2019-03-17T23:32:58.720Z,3.99
2019-03-17T23:35:27.486Z,3.97
2019-03-17T23:37:56.306Z,3.96
2019-03-17T23:40:25.103Z,3.96
2019-03-17T23:42:53.903Z,3.94
2019-03-17T23:45:22.688Z,3.93
2019-03-17T23:47:51.464Z,3.93
2019-03-17T23:50:20.303Z,3.94
2019-03-17T23:52:49.092Z,3.93
2019-03-17T23:55:17.888Z,3.93
2019-03-17T23:57:46.652Z,3.93
